Key West, FL

11:38 PM EDT on March 30, 2015 (GMT -0400)
Key West International | | Change Station
CLOSE
Current Station
Airport
Location: Key West,
Elevation: 0 ft
Nearby Weather Stations

Elev 0 ft 24.56 °N, 81.75 °W | Updated 45 minutes ago

Clear
Clear
67 °F
Feels Like 67 °F
N
5
Wind Variable Wind from North

Today
High -- | Low -- °F
--% Chance of Precip.
Yesterday
High -- | Low -- °F
Precip. -- in
7:21 AM 7:42 PM
Waxing Gibbous, 84% visible
Pressure 30.21 in
Visibility 10.0 miles
Clouds Clear
Dew Point 56 °F
Humidity 68%
Rainfall 0.00 in
Snow Depth Not available.
UV 0 out of 12
Pollen 11.80 out of 12
Air Quality Not available.
Flu Activity Not available.
METAR KEYW 310253Z AUTO 01004KT 10SM CLR 19/13 A3021 RMK AO2 SLP229 T01940133 52009

More Conditions Fewer Conditions

Pressure 30.21 in
Visibility 10.0 miles
Clouds Clear
Dew Point 56 °F
Humidity 68%
Rainfall 0.00 in
Snow Depth Not available.
UV 0 out of 12
Pollen 11.80 out of 12
Air Quality Not available.
Flu Activity Not available.
METAR KEYW 310253Z AUTO 01004KT 10SM CLR 19/13 A3021 RMK AO2 SLP229 T01940133 52009

More Conditions Fewer Conditions

10-Day Weather Forecast

Almanac

Astronomy

Mar. 30, 2015 Rise Set
Actual Time
Civil Twilight
Nautical Twilight
Astronomical Twilight
Moon
Length of Visible Light
Length of Day
Tomorrow will be .
, % of the Moon is Illuminated

Today's Extremes

State Highs State Lows

Community

WunderPhotos

Upload Photos

1,809,712 photos uploaded!

WunderBlogs® & News

Nearby

Air Quality

  Air Quality AQ Index Pollutant
Not available.

Snow Depth

Station Depth Elevation

Earthquake Activity

City Distance Mag. Time & Date
Minimum magnitude displayed is 2.5.

Coastal Water Temperatures

Place Temperature

Stations

Nearby Weather Stations

Station Location Temp. Windchill Dew Point Humidity Wind Precip. Elev Updated Type